Terminal Aerodrome Forecast
Issued by NWS

Home | Current Version | Previous Version | Text Only | Print | Product List | Glossary On
Versions: 1 2 3 4 5 6 7 8 9 10 11 12 13 14 15 16 17 18 19 20 21 22 23 24 25 26 27 28 29 30 31 32
626
FTUS45 KSLC 111309 AAA
TAFPVU
TAF AMD
KPVU 111309Z 1113/1212 02005KT 2SM BR SCT001 BKN090
      TEMPO 1113/1116 1/2SM FG VV001
     FM111600 09005KT P6SM SCT050 SCT090
      AMD LTD TO CLD VIS AND WIND=

USA.gov is the U.S. government's official web portal to all federal, state and local government web resources and services.